Time;durP1;ratioP1;P1;durP2;ratioP2;P2;SDS_P1;SDS_P2;PMS_P1;PMS_P2;Temp;Humidity;BMP_temperature;BMP_pressure;BME280_temperature;BME280_humidity;BME280_pressure;Samples;Min_cycle;Max_cycle;Signal;HPM_P1;HPM_P2
2022/09/03 00:00:10;;;;;;;7.05;3.08;;;;;;;18.02;43.97;100971.69;6185540;23;20036;-94
2022/09/03 00:03:00;;;;;;;4.50;3.40;;;;;;;18.02;43.90;100969.00;6185842;23;20039;-95
2022/09/03 00:05:33;;;;;;;4.65;3.35;;;;;;;17.99;43.95;100968.34;6185838;23;20096;-94
2022/09/03 00:08:14;;;;;;;5.05;3.10;;;;;;;17.99;43.73;100960.31;6185048;23;20036;-94
2022/09/03 00:11:05;;;;;;;5.88;3.42;;;;;;;17.81;44.24;100935.69;6185368;23;20028;-95
2022/09/03 00:13:38;;;;;;;3.65;3.30;;;;;;;17.90;44.69;100963.63;6211902;23;20088;-93
2022/09/03 00:16:09;;;;;;;5.80;3.60;;;;;;;17.73;44.86;100954.97;6185025;23;20429;-94
2022/09/03 00:18:40;;;;;;;5.50;3.63;;;;;;;17.69;45.01;100949.91;6186204;23;20009;-95
2022/09/03 00:21:21;;;;;;;7.35;3.78;;;;;;;17.76;44.37;100960.09;6186692;23;20087;-94
2022/09/03 00:23:47;;;;;;;8.38;3.78;;;;;;;17.66;45.04;100967.00;6211962;23;20004;-94
2022/09/03 00:26:13;;;;;;;7.22;3.60;;;;;;;17.65;45.11;100969.78;6184739;23;20028;-93
2022/09/03 00:28:53;;;;;;;4.18;3.50;;;;;;;17.60;44.81;100960.25;6185439;23;20015;-94
2022/09/03 00:31:41;;;;;;;4.25;3.30;;;;;;;17.52;44.77;100948.34;6185187;23;20008;-93
2022/09/03 00:34:23;;;;;;;7.25;3.95;;;;;;;17.45;45.85;100965.78;6186328;23;20009;-94
2022/09/03 00:36:49;;;;;;;5.07;3.90;;;;;;;17.45;46.10;100966.63;6184644;23;20448;-94
2022/09/03 00:39:17;;;;;;;7.85;3.38;;;;;;;17.41;45.73;100959.78;6212444;23;20004;-94
2022/09/03 00:41:56;;;;;;;11.13;3.70;;;;;;;17.44;45.78;100967.59;6212133;23;20011;-94
2022/09/03 00:44:25;;;;;;;3.90;3.47;;;;;;;17.40;45.98;100965.25;6186295;23;20543;-94
2022/09/03 00:47:06;;;;;;;7.40;4.03;;;;;;;17.40;45.50;100970.59;6184903;23;20012;-93
2022/09/03 00:49:39;;;;;;;6.65;3.75;;;;;;;17.38;45.50;100959.97;6185072;23;20079;-94
2022/09/03 00:52:48;;;;;;;5.20;3.50;;;;;;;17.38;45.68;100967.13;6184272;23;20043;-95
2022/09/03 00:55:46;;;;;;;6.93;3.17;;;;;;;17.38;45.39;100970.66;6080439;23;20010;-93
2022/09/03 00:58:23;;;;;;;5.88;3.45;;;;;;;17.42;45.48;100968.66;6169953;23;20008;-94
2022/09/03 01:00:51;;;;;;;7.05;3.95;;;;;;;17.25;46.09;100962.63;6184988;23;20004;-94
2022/09/03 01:03:35;;;;;;;7.07;3.20;;;;;;;17.21;46.68;100960.25;6183367;23;20012;-93
2022/09/03 01:06:21;;;;;;;4.90;3.67;;;;;;;17.19;45.79;100956.81;6183167;23;20008;-93
2022/09/03 01:09:10;;;;;;;7.50;4.07;;;;;;;17.07;46.36;100946.00;6186012;23;20013;-94
2022/09/03 01:12:04;;;;;;;6.75;4.00;;;;;;;17.17;46.27;100961.41;6185277;23;20007;-93
2022/09/03 01:14:45;;;;;;;5.35;3.42;;;;;;;17.08;46.41;100960.19;6184637;23;20009;-94
2022/09/03 01:17:32;;;;;;;4.90;3.50;;;;;;;17.06;46.33;100956.75;6184230;23;20009;-94
2022/09/03 01:20:19;;;;;;;5.75;3.72;;;;;;;16.96;46.66;100955.66;6183930;23;20011;-93
2022/09/03 01:23:34;;;;;;;4.53;3.30;;;;;;;16.97;46.50;100957.34;6210619;23;20007;-94
2022/09/03 01:26:26;;;;;;;3.40;3.10;;;;;;;16.82;46.77;100946.72;6184289;23;20008;-94
2022/09/03 01:29:00;;;;;;;5.47;3.38;;;;;;;16.83;47.43;100956.47;6185257;23;20009;-94
2022/09/03 01:31:41;;;;;;;7.80;3.65;;;;;;;16.83;46.49;100955.56;6184876;23;20043;-94
2022/09/03 01:34:13;;;;;;;5.22;3.75;;;;;;;16.85;47.48;100972.38;6210920;23;20072;-94
2022/09/03 01:37:13;;;;;;;4.40;3.28;;;;;;;16.74;47.32;100967.72;6184421;23;20008;-93
2022/09/03 01:39:59;;;;;;;6.60;3.70;;;;;;;16.71;47.06;100962.53;6183732;23;20067;-94
2022/09/03 01:42:38;;;;;;;9.27;3.80;;;;;;;16.55;47.65;100957.31;6184338;23;20496;-94
2022/09/03 01:45:21;;;;;;;4.95;3.70;;;;;;;16.60;48.07;100962.38;6184452;23;20012;-93
2022/09/03 01:48:12;;;;;;;7.47;3.60;;;;;;;16.54;48.17;100958.25;6210253;23;20008;-93
2022/09/03 01:50:56;;;;;;;3.88;3.47;;;;;;;16.57;47.33;100950.06;6184039;23;20004;-93
2022/09/03 01:54:00;;;;;;;4.40;3.35;;;;;;;16.55;47.92;100970.66;6211082;23;20009;-93
2022/09/03 01:57:00;;;;;;;5.18;3.17;;;;;;;16.48;47.82;100961.31;6184170;23;20023;-93
2022/09/03 01:59:32;;;;;;;5.70;3.58;;;;;;;16.40;48.57;100958.28;6183667;23;20016;-94
2022/09/03 02:02:21;;;;;;;3.45;3.15;;;;;;;16.58;47.83;100965.13;6210653;23;20820;-93
2022/09/03 02:04:59;;;;;;;4.15;3.28;;;;;;;16.63;47.56;100962.16;6185453;23;20004;-94
2022/09/03 02:07:32;;;;;;;7.78;3.30;;;;;;;16.52;47.86;100954.00;6186093;23;20040;-93
2022/09/03 02:09:59;;;;;;;5.63;3.30;;;;;;;16.50;48.64;100955.88;6186416;23;20008;-93
2022/09/03 02:12:25;;;;;;;4.88;3.15;;;;;;;16.39;48.09;100945.88;6186753;23;20014;-93
2022/09/03 02:14:50;;;;;;;5.03;4.07;;;;;;;16.39;48.41;100948.56;6186179;23;20028;-94
2022/09/03 02:17:16;;;;;;;3.00;2.80;;;;;;;16.33;48.42;100943.63;6212049;23;20057;-93
2022/09/03 02:19:41;;;;;;;4.35;2.95;;;;;;;16.23;48.65;100940.66;6185603;23;20004;-94
2022/09/03 02:22:06;;;;;;;3.42;3.00;;;;;;;16.27;48.61;100946.63;6186912;23;20032;-93
2022/09/03 02:24:32;;;;;;;4.28;3.40;;;;;;;16.25;48.66;100954.75;6186354;23;20342;-94
2022/09/03 02:26:58;;;;;;;4.15;3.20;;;;;;;16.12;48.75;100939.59;6185730;23;20000;-94
2022/09/03 02:29:24;;;;;;;5.57;3.00;;;;;;;16.11;49.38;100954.75;6186191;23;20066;-94
2022/09/03 02:31:49;;;;;;;4.90;3.50;;;;;;;16.06;48.97;100939.03;6177645;23;20013;-94
2022/09/03 02:34:15;;;;;;;4.60;3.00;;;;;;;16.02;49.03;100940.16;6183196;23;20016;-93
2022/09/03 02:36:46;;;;;;;3.85;3.17;;;;;;;16.11;49.21;100948.56;6182388;23;20011;-94
2022/09/03 02:39:13;;;;;;;5.35;3.25;;;;;;;16.12;49.04;100944.94;6156894;23;20028;-93
2022/09/03 02:41:39;;;;;;;3.50;2.78;;;;;;;16.03;48.83;100936.53;6156623;23;20001;-93
2022/09/03 02:44:18;;;;;;;4.18;3.03;;;;;;;16.08;48.52;100950.44;6182941;23;20011;-93
2022/09/03 02:46:51;;;;;;;5.07;2.80;;;;;;;16.11;48.40;100948.56;6154828;23;20009;-94
2022/09/03 02:49:16;;;;;;;5.03;2.92;;;;;;;16.03;49.22;100954.34;6156353;23;20095;-93
2022/09/03 02:51:43;;;;;;;3.15;2.85;;;;;;;15.96;49.80;100942.34;6155616;23;20131;-93
2022/09/03 02:54:10;;;;;;;5.30;2.95;;;;;;;16.02;49.50;100953.50;6156130;23;20000;-93
2022/09/03 02:56:36;;;;;;;7.88;2.90;;;;;;;15.99;49.32;100945.72;6155074;23;20032;-92
2022/09/03 02:59:04;;;;;;;3.03;2.70;;;;;;;16.02;48.94;100950.81;6155316;23;20448;-94
2022/09/03 03:01:30;;;;;;;4.45;2.78;;;;;;;15.89;49.60;100955.19;6155345;23;20071;-93
2022/09/03 03:03:56;;;;;;;3.80;2.92;;;;;;;15.80;50.22;100945.94;6156182;23;20016;-93
2022/09/03 03:06:21;;;;;;;4.13;2.92;;;;;;;15.90;49.84;100948.94;6155185;23;20000;-94
2022/09/03 03:08:48;;;;;;;8.13;2.60;;;;;;;15.90;49.03;100942.72;6156473;23;20012;-94
2022/09/03 03:11:17;;;;;;;3.28;2.75;;;;;;;15.89;49.17;100949.84;6155990;23;20421;-93
2022/09/03 03:13:43;;;;;;;3.63;2.95;;;;;;;15.85;49.54;100958.13;6156285;23;20009;-93
2022/09/03 03:16:08;;;;;;;5.13;2.35;;;;;;;15.79;49.77;100949.56;6153882;23;20429;-93
2022/09/03 03:18:34;;;;;;;8.65;3.30;;;;;;;15.76;49.73;100946.22;6155038;23;20015;-93
2022/09/03 03:21:10;;;;;;;2.75;2.40;;;;;;;15.70;49.82;100935.94;6155759;23;20006;-94
2022/09/03 03:23:37;;;;;;;3.92;2.70;;;;;;;15.81;49.91;100946.81;6182742;23;20332;-93
2022/09/03 03:26:04;;;;;;;6.10;2.83;;;;;;;15.78;50.07;100947.84;6154839;23;20242;-94
2022/09/03 03:28:33;;;;;;;3.65;2.80;;;;;;;15.67;50.27;100938.78;6155655;23;20253;-93
2022/09/03 03:31:10;;;;;;;5.72;2.50;;;;;;;15.70;49.52;100942.09;6151351;23;20294;-94
2022/09/03 03:33:35;;;;;;;3.00;2.60;;;;;;;15.63;50.57;100951.41;6184697;23;20364;-93
2022/09/03 03:36:05;;;;;;;5.13;2.40;;;;;;;15.56;50.07;100936.72;6184580;23;20016;-93
2022/09/03 03:38:32;;;;;;;4.88;2.45;;;;;;;15.43;50.42;100938.38;6212101;23;20088;-94
2022/09/03 03:40:57;;;;;;;3.05;2.75;;;;;;;15.43;50.48;100941.91;6185157;23;20434;-93
2022/09/03 03:43:22;;;;;;;4.25;2.72;;;;;;;15.53;50.27;100947.56;6186620;23;20016;-93
2022/09/03 03:45:57;;;;;;;4.65;2.30;;;;;;;15.49;50.88;100951.38;6183197;23;20047;-93
2022/09/03 03:48:24;;;;;;;3.20;2.47;;;;;;;15.41;50.80;100937.63;6185507;23;20429;-93
2022/09/03 03:50:49;;;;;;;2.95;2.60;;;;;;;15.38;50.37;100945.78;6184686;23;20024;-93
2022/09/03 03:53:15;;;;;;;3.58;2.70;;;;;;;15.50;50.53;100939.75;6212991;23;20496;-94
2022/09/03 03:55:41;;;;;;;2.85;2.60;;;;;;;15.46;50.39;100947.06;6185127;23;20012;-93
2022/09/03 03:58:06;;;;;;;5.55;2.88;;;;;;;15.52;50.73;100951.16;6184825;23;20459;-94
2022/09/03 04:00:32;;;;;;;2.60;2.33;;;;;;;15.56;50.46;100944.72;6184419;23;20024;-93
2022/09/03 04:02:58;;;;;;;3.20;2.28;;;;;;;15.50;51.35;100939.75;6211425;23;20024;-93
2022/09/03 04:05:23;;;;;;;5.30;2.53;;;;;;;15.52;50.61;100932.50;6210958;23;20009;-93
2022/09/03 04:07:48;;;;;;;4.88;2.78;;;;;;;15.55;51.54;100921.69;6184617;23;20087;-93
2022/09/03 04:10:14;;;;;;;2.50;2.30;;;;;;;15.52;51.12;100932.50;6186004;23;20060;-93
2022/09/03 04:12:39;;;;;;;4.75;2.85;;;;;;;15.54;50.98;100935.97;6185230;23;20425;-93
2022/09/03 04:15:05;;;;;;;3.70;2.53;;;;;;;15.57;51.52;100941.97;6183408;23;20042;-93
2022/09/03 04:17:31;;;;;;;3.30;2.70;;;;;;;15.52;50.92;100929.84;6184539;23;20083;-92
2022/09/03 04:19:56;;;;;;;2.92;2.35;;;;;;;15.59;50.63;100933.03;6184037;23;20059;-93
2022/09/03 04:22:21;;;;;;;5.25;3.20;;;;;;;15.64;50.96;100941.63;6184226;23;20031;-93
2022/09/03 04:24:46;;;;;;;4.50;3.03;;;;;;;15.59;51.15;100931.22;6183589;23;20016;-93
2022/09/03 04:27:12;;;;;;;4.00;2.50;;;;;;;15.57;50.94;100935.75;6184739;23;20139;-94
2022/09/03 04:29:37;;;;;;;2.55;2.35;;;;;;;15.59;50.49;100928.53;6210024;23;20011;-93
2022/09/03 04:34:46;;;;;;;2.50;2.30;;;;;;;15.70;50.86;100943.91;6210918;23;20066;-93
2022/09/03 04:37:12;;;;;;;2.85;2.40;;;;;;;15.67;50.81;100930.78;6184338;23;20376;-93
2022/09/03 04:39:37;;;;;;;3.03;2.45;;;;;;;15.66;50.31;100929.91;6184409;23;20332;-92
2022/09/03 04:42:02;;;;;;;3.65;2.45;;;;;;;15.69;50.51;100929.75;6184714;23;20036;-93
2022/09/03 04:44:28;;;;;;;2.83;2.50;;;;;;;15.64;50.28;100936.31;6184505;23;20020;-93
2022/09/03 04:46:53;;;;;;;4.43;2.35;;;;;;;15.55;50.50;100933.19;6182524;23;20008;-93
2022/09/03 04:49:19;;;;;;;3.00;2.20;;;;;;;15.57;50.70;100946.41;6185070;23;20059;-94
2022/09/03 04:51:44;;;;;;;3.15;2.20;;;;;;;15.56;50.84;100940.22;6183814;23;20333;-94
2022/09/03 04:54:09;;;;;;;4.78;2.47;;;;;;;15.57;50.77;100943.75;6211451;23;20008;-93
2022/09/03 04:56:37;;;;;;;4.10;2.10;;;;;;;15.59;50.90;100947.19;6182940;23;20008;-92
2022/09/03 04:59:05;;;;;;;2.30;2.03;;;;;;;15.46;51.09;100941.72;6184312;23;20142;-93
2022/09/03 05:01:33;;;;;;;4.70;2.75;;;;;;;15.50;51.11;100951.25;6183822;23;20012;-93
2022/09/03 05:03:59;;;;;;;3.40;2.25;;;;;;;15.48;50.99;100949.63;6184622;23;20075;-94
2022/09/03 05:06:25;;;;;;;2.53;2.33;;;;;;;15.44;51.20;100943.63;6182604;23;20008;-93
2022/09/03 05:08:53;;;;;;;2.58;2.38;;;;;;;15.29;51.66;100937.41;6211441;23;20012;-94
2022/09/03 05:11:18;;;;;;;7.72;2.45;;;;;;;15.35;51.80;100935.34;6184024;23;20380;-93
2022/09/03 05:13:49;;;;;;;2.72;2.17;;;;;;;15.39;51.37;100943.06;6185276;23;20008;-94
2022/09/03 05:16:16;;;;;;;6.03;2.65;;;;;;;15.43;51.39;100944.56;6182718;23;20073;-94
2022/09/03 05:18:41;;;;;;;3.50;2.72;;;;;;;15.44;51.63;100940.97;6210869;23;20650;-93
2022/09/03 05:21:09;;;;;;;2.55;2.22;;;;;;;15.54;51.23;100954.63;6183502;23;20012;-94
2022/09/03 05:23:37;;;;;;;3.38;2.30;;;;;;;15.54;51.35;100955.47;6184903;23;20009;-94
2022/09/03 05:26:08;;;;;;;5.45;2.33;;;;;;;15.60;51.57;100937.41;6183098;23;20015;-94
2022/09/03 05:28:35;;;;;;;3.72;2.50;;;;;;;15.69;51.21;100951.06;6185129;23;20008;-94
2022/09/03 05:31:21;;;;;;;2.70;2.30;;;;;;;15.69;50.61;100943.06;6185260;23;20428;-94
2022/09/03 05:33:52;;;;;;;4.22;2.53;;;;;;;15.71;51.12;100951.81;6155185;23;20025;-94
2022/09/03 05:36:22;;;;;;;3.67;2.40;;;;;;;15.72;50.92;100940.22;6154323;23;20541;-94
2022/09/03 05:38:48;;;;;;;3.08;2.30;;;;;;;15.78;51.12;100939.00;6157290;23;20032;-94
2022/09/03 05:41:15;;;;;;;4.95;2.60;;;;;;;15.88;51.34;100940.16;6183533;23;20013;-94
2022/09/03 05:43:41;;;;;;;4.85;2.45;;;;;;;15.93;50.67;100942.53;6158029;23;20476;-95
2022/09/03 05:46:10;;;;;;;6.63;2.70;;;;;;;15.94;51.19;100938.91;6156995;23;20091;-93
2022/09/03 05:48:37;;;;;;;2.88;2.50;;;;;;;16.06;51.25;100939.03;6134254;23;20013;-94
2022/09/03 05:51:16;;;;;;;6.22;2.58;;;;;;;16.15;50.55;100948.28;6157224;23;20419;-94
2022/09/03 05:53:47;;;;;;;3.53;2.42;;;;;;;16.19;50.48;100948.94;6158164;23;20016;-93
2022/09/03 05:56:17;;;;;;;7.75;2.60;;;;;;;16.15;50.90;100928.75;6158740;23;20005;-93
2022/09/03 05:58:48;;;;;;;3.72;2.15;;;;;;;16.33;50.81;100947.13;6158019;23;20012;-93
2022/09/03 06:01:15;;;;;;;4.70;2.40;;;;;;;16.47;51.02;100948.09;6157809;23;20019;-93
2022/09/03 06:03:42;;;;;;;4.10;2.53;;;;;;;16.58;50.57;100945.59;6159011;23;20013;-93
2022/09/03 06:06:08;;;;;;;6.22;2.65;;;;;;;16.69;50.13;100943.06;6157472;23;20005;-93
2022/09/03 06:08:34;;;;;;;8.25;2.50;;;;;;;16.67;49.47;100923.63;6159559;23;20008;-92
2022/09/03 06:11:02;;;;;;;5.00;2.33;;;;;;;16.76;49.60;100931.09;6156828;23;20084;-93
2022/09/03 06:13:28;;;;;;;4.10;2.42;;;;;;;16.94;48.88;100936.19;6157350;23;20429;-93
2022/09/03 06:16:01;;;;;;;4.60;2.50;;;;;;;17.20;48.65;100951.34;6155950;23;20020;-93
2022/09/03 06:18:28;;;;;;;6.82;2.50;;;;;;;17.30;48.52;100936.44;6157748;23;20009;-93
2022/09/03 06:20:54;;;;;;;4.47;2.53;;;;;;;17.45;48.00;100947.94;6156984;23;20278;-93
2022/09/03 06:23:20;;;;;;;4.07;2.47;;;;;;;17.60;48.19;100956.72;6157817;23;20009;-93
2022/09/03 06:25:45;;;;;;;4.25;2.63;;;;;;;17.71;47.02;100946.13;6157521;23;20024;-94
2022/09/03 06:28:10;;;;;;;5.10;2.80;;;;;;;17.72;46.62;100947.88;6156693;23;20060;-94
2022/09/03 06:30:36;;;;;;;5.13;3.05;;;;;;;17.82;46.47;100945.47;6157833;23;20340;-94
2022/09/03 06:33:01;;;;;;;5.78;2.72;;;;;;;17.97;46.60;100959.59;6179125;23;20063;-93
2022/09/03 06:35:26;;;;;;;7.35;2.90;;;;;;;18.03;46.48;100951.97;6187558;23;20083;-93
2022/09/03 06:37:52;;;;;;;4.18;3.20;;;;;;;18.05;46.72;100938.53;6163253;23;20009;-92
2022/09/03 06:40:21;;;;;;;5.13;2.70;;;;;;;18.18;46.06;100947.38;6186340;23;20087;-92
2022/09/03 06:42:58;;;;;;;5.68;2.65;;;;;;;18.33;46.38;100951.66;6186541;23;20464;-92
2022/09/03 06:45:23;;;;;;;5.75;3.03;;;;;;;18.43;46.07;100941.16;6185869;23;20657;-93
2022/09/03 06:47:48;;;;;;;8.98;3.53;;;;;;;18.63;45.72;100942.41;6186412;23;20063;-92
2022/09/03 06:50:14;;;;;;;5.20;3.78;;;;;;;18.78;45.24;100943.97;6185025;23;20344;-92
2022/09/03 06:52:39;;;;;;;6.50;3.60;;;;;;;18.78;45.27;100935.94;6183712;23;20075;-92
2022/09/03 06:55:05;;;;;;;6.05;3.60;;;;;;;18.85;44.53;100933.69;6184521;23;20004;-92
2022/09/03 06:57:30;;;;;;;11.65;4.00;;;;;;;19.00;44.81;100945.97;6184357;23;20012;-91
2022/09/03 06:59:56;;;;;;;7.18;3.65;;;;;;;19.07;43.96;100940.97;6184040;23;20014;-91
2022/09/03 07:02:21;;;;;;;6.32;4.05;;;;;;;19.15;43.94;100938.59;6209450;23;20008;-91
2022/09/03 07:04:48;;;;;;;6.90;4.00;;;;;;;19.28;44.19;100949.25;6210873;23;20089;-91
2022/09/03 07:07:15;;;;;;;7.13;4.28;;;;;;;19.33;44.16;100947.94;6209887;23;20483;-91
2022/09/03 07:09:40;;;;;;;7.97;4.05;;;;;;;19.39;44.15;100949.31;6183848;23;20005;-91
2022/09/03 07:12:06;;;;;;;7.38;4.28;;;;;;;19.48;44.10;100943.25;6184518;23;20051;-91
2022/09/03 07:14:31;;;;;;;8.75;4.13;;;;;;;19.77;44.50;100954.47;6184493;23;20443;-92
2022/09/03 07:16:57;;;;;;;9.75;3.92;;;;;;;19.74;44.47;100951.19;6182770;23;20365;-92
2022/09/03 07:19:22;;;;;;;7.30;4.70;;;;;;;19.62;43.90;100932.34;6184210;23;20372;-91
2022/09/03 07:21:47;;;;;;;10.65;5.10;;;;;;;19.87;43.37;100954.63;6183708;23;20003;-91
2022/09/03 07:24:12;;;;;;;9.80;5.35;;;;;;;20.00;42.43;100949.13;6183706;23;20380;-92
2022/09/03 07:26:43;;;;;;;10.85;5.70;;;;;;;20.06;42.38;100944.16;6184466;23;20008;-91
2022/09/03 07:29:10;;;;;;;10.55;5.70;;;;;;;20.12;43.11;100946.34;6211712;23;20444;-91
2022/09/03 07:31:38;;;;;;;9.05;5.45;;;;;;;20.23;42.82;100961.63;6183583;23;20131;-92
2022/09/03 07:34:06;;;;;;;10.13;5.50;;;;;;;20.30;43.03;100965.53;6211875;23;20008;-90
2022/09/03 07:36:37;;;;;;;8.80;5.32;;;;;;;20.36;43.05;100962.34;6182631;23;20040;-92
2022/09/03 07:39:03;;;;;;;12.77;5.45;;;;;;;20.42;41.24;100949.41;6184764;23;20097;-90
2022/09/03 07:41:30;;;;;;;13.20;6.18;;;;;;;20.51;41.25;100952.25;6184056;23;20013;-90
2022/09/03 07:43:55;;;;;;;11.15;5.70;;;;;;;20.58;41.49;100958.00;6184627;23;20008;-90
2022/09/03 07:46:26;;;;;;;13.30;6.70;;;;;;;20.91;40.28;100965.16;6183748;23;20014;-90
2022/09/03 07:48:56;;;;;;;16.08;6.57;;;;;;;21.04;40.04;100965.03;6184173;23;20099;-89
2022/09/03 07:51:27;;;;;;;12.75;6.45;;;;;;;21.44;39.41;100964.41;6209758;23;20376;-89
2022/09/03 07:53:56;;;;;;;17.70;6.68;;;;;;;21.74;39.05;100964.53;6210905;23;20415;-89
2022/09/03 07:56:22;;;;;;;17.55;7.25;;;;;;;21.96;38.72;100962.69;6183429;23;20401;-89
2022/09/03 07:58:48;;;;;;;14.60;7.13;;;;;;;22.25;39.10;100960.19;6183893;23;20001;-89
2022/09/03 08:01:18;;;;;;;15.15;6.32;;;;;;;22.44;39.10;100962.13;6182668;23;20035;-89
2022/09/03 08:03:49;;;;;;;15.77;7.18;;;;;;;22.63;37.61;100960.34;6184439;23;20035;-88
2022/09/03 08:06:16;;;;;;;13.40;6.60;;;;;;;23.00;37.29;100959.78;6182830;23;20012;-89
2022/09/03 08:08:43;;;;;;;12.07;6.00;;;;;;;23.47;36.25;100968.06;6210961;23;20432;-87
2022/09/03 08:11:12;;;;;;;13.60;7.78;;;;;;;23.60;35.24;100940.78;6210644;23;20413;-88
2022/09/03 08:13:43;;;;;;;13.55;6.53;;;;;;;23.97;35.39;100958.94;6183622;23;20113;-87
2022/09/03 08:16:10;;;;;;;14.73;6.75;;;;;;;23.87;34.93;100959.81;6209629;23;20229;-88
2022/09/03 08:18:39;;;;;;;12.20;5.80;;;;;;;24.17;34.40;100969.56;6211068;23;20005;-87
2022/09/03 08:21:10;;;;;;;10.40;5.30;;;;;;;24.45;34.50;100966.09;6209179;23;20062;-87
2022/09/03 08:23:36;;;;;;;7.43;5.10;;;;;;;24.74;32.97;100977.59;6211625;23;20555;-87
2022/09/03 08:26:02;;;;;;;10.80;5.00;;;;;;;24.91;32.08;100982.22;6180697;23;20169;-88
2022/09/03 08:28:28;;;;;;;12.18;5.20;;;;;;;25.23;31.86;100974.63;6210629;23;20467;-88
2022/09/03 08:30:54;;;;;;;8.38;4.38;;;;;;;25.32;32.48;100984.53;6207926;23;20000;-89
2022/09/03 08:33:35;;;;;;;11.90;4.68;;;;;;;25.53;31.75;100974.25;6183909;23;20030;-87
2022/09/03 08:36:06;;;;;;;10.60;4.50;;;;;;;26.28;30.74;100965.69;6182891;23;20081;-88
2022/09/03 08:38:32;;;;;;;12.40;4.60;;;;;;;26.57;30.40;100979.78;6208537;23;20012;-88
2022/09/03 08:41:09;;;;;;;10.73;4.50;;;;;;;26.37;31.26;100976.44;6182520;23;20009;-87
2022/09/03 08:43:52;;;;;;;6.28;3.67;;;;;;;26.46;30.27;100980.06;6208776;23;20010;-89
2022/09/03 08:46:20;;;;;;;8.23;4.00;;;;;;;26.31;30.55;100990.63;6185451;23;20116;-88
2022/09/03 08:48:47;;;;;;;14.63;4.22;;;;;;;26.41;31.47;100985.94;6183041;23;20016;-90
2022/09/03 08:51:15;;;;;;;7.43;4.07;;;;;;;26.99;30.99;100986.22;6183046;23;20087;-89
2022/09/03 08:53:48;;;;;;;8.35;3.53;;;;;;;27.59;30.93;101003.16;6208186;23;20537;-89
2022/09/03 08:56:20;;;;;;;10.13;3.70;;;;;;;28.28;28.36;100984.63;6181215;23;20000;-89
2022/09/03 08:58:45;;;;;;;10.52;3.42;;;;;;;28.28;27.57;100976.47;6183035;23;20020;-91
2022/09/03 09:01:35;;;;;;;7.22;3.75;;;;;;;28.33;29.18;100976.81;6182389;23;20009;-90
2022/09/03 09:04:25;;;;;;;5.78;3.17;;;;;;;28.91;28.38;100991.06;6210715;23;20005;-89
2022/09/03 09:07:08;;;;;;;5.30;2.60;;;;;;;29.14;28.10;100985.69;6181642;23;20000;-90
2022/09/03 09:09:47;;;;;;;4.95;2.90;;;;;;;29.59;26.33;100979.47;6207948;23;20025;-90
2022/09/03 09:12:18;;;;;;;5.10;2.60;;;;;;;29.53;26.50;100982.91;6209515;23;20004;-89
2022/09/03 09:15:09;;;;;;;6.20;2.73;;;;;;;30.15;26.49;100960.91;6183386;23;20503;-89
2022/09/03 09:17:51;;;;;;;5.88;2.33;;;;;;;30.62;25.30;100991.59;6209094;23;20239;-89
2022/09/03 09:20:35;;;;;;;4.03;1.80;;;;;;;30.66;24.52;100993.75;6210507;23;20009;-89
2022/09/03 09:23:06;;;;;;;5.90;2.10;;;;;;;30.53;24.95;100979.94;6209748;23;20047;-89
2022/09/03 09:25:37;;;;;;;3.85;2.13;;;;;;;30.44;25.30;100989.25;6209179;23;20018;-90
2022/09/03 09:28:16;;;;;;;8.70;3.80;;;;;;;30.67;24.99;100979.06;6181589;23;20051;-89
2022/09/03 09:30:43;;;;;;;4.80;3.00;;;;;;;31.42;23.19;100985.25;6179610;23;20019;-88
2022/09/03 09:33:08;;;;;;;5.80;2.72;;;;;;;31.49;23.90;100973.34;6208342;23;20519;-90
2022/09/03 09:35:33;;;;;;;8.25;2.97;;;;;;;31.86;24.22;100974.13;6182584;23;20094;-90
2022/09/03 09:37:59;;;;;;;6.57;3.13;;;;;;;31.63;23.00;100968.88;6181600;23;20005;-90
2022/09/03 09:40:32;;;;;;;3.40;2.42;;;;;;;32.37;22.55;100979.38;6207039;23;20135;-90
2022/09/03 09:43:12;;;;;;;4.80;2.42;;;;;;;32.85;22.56;100981.28;6207892;23;20008;-90
2022/09/03 09:45:40;;;;;;;7.38;2.92;;;;;;;32.53;21.94;100972.72;6180587;23;20078;-90
2022/09/03 09:48:30;;;;;;;8.95;3.10;;;;;;;32.99;22.52;100983.91;6181702;23;20008;-89
2022/09/03 09:51:19;;;;;;;5.35;2.22;;;;;;;33.53;22.46;100993.16;6165053;23;20377;-89
2022/09/03 09:53:44;;;;;;;3.47;1.83;;;;;;;32.59;22.06;100982.84;6209398;23;20012;-90
2022/09/03 09:56:21;;;;;;;6.93;2.20;;;;;;;32.97;21.88;100972.31;6207650;23;20298;-89
2022/09/03 09:58:47;;;;;;;3.20;1.98;;;;;;;33.81;21.51;100967.41;6180637;23;20580;-89
2022/09/03 10:01:22;;;;;;;4.80;2.00;;;;;;;34.17;21.04;100984.28;6181297;23;20005;-88
2022/09/03 10:03:59;;;;;;;7.53;3.63;;;;;;;34.31;21.31;100976.88;6182155;23;20015;-89
2022/09/03 10:09:33;;;;;;;7.90;2.88;;;;;;;35.06;19.34;100970.94;6207099;23;20023;-90
2022/09/03 10:12:24;;;;;;;5.03;2.60;;;;;;;33.96;21.26;100971.66;6209256;23;20000;-89
2022/09/03 10:15:39;;;;;;;3.40;2.33;;;;;;;34.12;21.51;100975.84;6178190;23;20016;-88
2022/09/03 10:18:27;;;;;;;4.32;1.67;;;;;;;34.25;20.80;100975.84;6179597;23;20018;-91
2022/09/03 10:21:27;;;;;;;4.53;1.85;;;;;;;33.59;21.99;100970.38;6207810;23;20031;-90
2022/09/03 10:24:06;;;;;;;5.05;2.30;;;;;;;34.16;19.92;100968.88;6162800;23;20008;-90
2022/09/03 10:26:31;;;;;;;7.78;1.83;;;;;;;34.29;20.09;100956.22;6210925;23;20004;-89
2022/09/03 10:29:01;;;;;;;7.65;2.10;;;;;;;34.40;20.27;100972.84;6212796;23;20009;-89
2022/09/03 10:31:45;;;;;;;5.95;2.50;;;;;;;34.16;19.61;100971.63;6184916;23;20074;-91
2022/09/03 10:34:38;;;;;;;8.95;2.50;;;;;;;34.39;20.61;100962.94;6211069;23;20019;-90
2022/09/03 10:37:26;;;;;;;6.35;2.20;;;;;;;34.84;20.85;100960.25;6181187;23;20008;-90
2022/09/03 10:40:41;;;;;;;5.53;2.38;;;;;;;34.88;21.46;100953.28;6182982;23;20326;-90
2022/09/03 10:43:22;;;;;;;8.25;3.85;;;;;;;35.16;20.02;100966.69;6094100;23;20432;-89
2022/09/03 10:46:07;;;;;;;8.40;3.03;;;;;;;34.93;19.68;100967.19;6174485;23;20008;-91
2022/09/03 10:49:20;;;;;;;6.82;2.90;;;;;;;34.78;20.42;100969.34;6184342;23;20451;-90
2022/09/03 10:52:00;;;;;;;8.75;4.32;;;;;;;33.71;20.74;100956.84;6163877;23;20005;-92
2022/09/03 10:54:44;;;;;;;7.13;4.20;;;;;;;34.36;20.47;100959.75;6210515;23;20027;-90
2022/09/03 10:57:29;;;;;;;7.53;4.00;;;;;;;34.47;20.45;100962.72;6211411;23;20005;-91
2022/09/03 11:00:11;;;;;;;7.30;3.58;;;;;;;33.82;20.93;100971.84;6211174;23;20001;-89
2022/09/03 11:03:05;;;;;;;8.23;3.58;;;;;;;33.72;21.21;100958.56;6183188;23;20468;-90
2022/09/03 11:05:37;;;;;;;9.60;3.88;;;;;;;33.68;22.25;100968.25;6210931;23;20326;-89
2022/09/03 11:08:10;;;;;;;8.65;4.75;;;;;;;33.75;21.00;100963.59;6183458;23;20005;-91
2022/09/03 11:10:56;;;;;;;13.63;5.18;;;;;;;33.82;21.41;100969.13;6184096;23;20009;-89
2022/09/03 11:13:29;;;;;;;14.38;4.78;;;;;;;33.51;22.29;100967.81;6185051;23;20051;-90
2022/09/03 11:16:03;;;;;;;9.57;3.72;;;;;;;34.16;20.53;100954.31;6183257;23;20051;-92
2022/09/03 11:18:39;;;;;;;9.40;4.30;;;;;;;33.93;21.14;100955.59;6184216;23;20000;-89
2022/09/03 11:21:11;;;;;;;12.25;5.32;;;;;;;33.89;20.52;100964.44;6210480;23;20080;-90
2022/09/03 11:23:41;;;;;;;9.88;5.57;;;;;;;34.17;21.25;100959.59;6184987;23;20076;-91
2022/09/03 11:26:11;;;;;;;11.88;5.40;;;;;;;34.76;20.20;100961.34;6210462;23;20008;-90
2022/09/03 11:29:04;;;;;;;14.00;5.53;;;;;;;35.06;20.69;100946.22;6184080;23;20015;-92
2022/09/03 11:32:02;;;;;;;8.35;4.78;;;;;;;34.69;20.52;100965.16;6183436;23;20005;-91
2022/09/03 11:34:32;;;;;;;9.15;4.50;;;;;;;34.75;19.96;100953.34;6185036;23;20470;-91
2022/09/03 11:37:19;;;;;;;9.40;4.43;;;;;;;35.30;20.21;100953.66;6210714;23;20012;-92
2022/09/03 11:39:53;;;;;;;6.72;4.97;;;;;;;35.33;19.63;100942.22;6185081;23;20096;-90
2022/09/03 11:42:38;;;;;;;10.77;5.00;;;;;;;35.37;20.20;100948.97;6185332;23;20013;-92
2022/09/03 11:45:33;;;;;;;9.07;4.80;;;;;;;35.56;20.85;100943.59;6183631;23;20000;-91
2022/09/03 11:47:59;;;;;;;13.82;5.38;;;;;;;35.59;19.39;100934.91;6183564;23;20087;-92
2022/09/03 11:50:32;;;;;;;9.52;4.53;;;;;;;35.71;19.78;100939.41;6209714;23;20448;-92
2022/09/03 11:53:09;;;;;;;8.93;4.30;;;;;;;35.13;19.79;100945.13;6212125;23;20004;-94
2022/09/03 11:55:58;;;;;;;10.70;4.30;;;;;;;34.57;20.46;100939.47;6183659;23;20032;-93